createdAt,value
2022-10-11T00:01:28.090Z,97.50
2022-10-11T00:06:30.843Z,97.81
2022-10-11T00:11:33.588Z,97.70
2022-10-11T00:16:38.617Z,97.71
2022-10-11T00:21:41.209Z,97.75
2022-10-11T00:26:46.737Z,98.23
2022-10-11T00:31:49.833Z,97.98
2022-10-11T00:36:52.380Z,98.04
2022-10-11T00:41:55.441Z,98.42
2022-10-11T00:47:05.167Z,98.48
2022-10-11T00:52:33.037Z,98.62
2022-10-11T00:57:41.052Z,98.53
2022-10-11T01:02:43.809Z,98.69
2022-10-11T01:07:48.044Z,98.80
2022-10-11T01:13:22.715Z,98.46
2022-10-11T01:18:27.855Z,98.68
2022-10-11T01:23:57.993Z,98.97
2022-10-11T01:29:19.469Z,98.94
2022-10-11T01:34:43.179Z,98.71
2022-10-11T01:40:03.130Z,99.04
2022-10-11T01:45:09.498Z,99.14
2022-10-11T01:50:34.457Z,99.24
2022-10-11T01:55:54.224Z,98.97
2022-10-11T02:01:34.276Z,98.65
2022-10-11T02:06:55.258Z,98.75
2022-10-11T02:12:02.460Z,99.53
2022-10-11T02:17:11.878Z,98.80
2022-10-11T02:22:23.635Z,98.87
2022-10-11T02:27:33.119Z,98.64
2022-10-11T02:32:39.828Z,98.93
2022-10-11T02:38:05.871Z,98.43
2022-10-11T02:43:18.086Z,98.26
2022-10-11T02:48:21.182Z,98.04
2022-10-11T02:53:26.206Z,98.08
2022-10-11T02:58:28.769Z,98.09
2022-10-11T03:03:31.388Z,98.40
2022-10-11T03:08:34.313Z,98.12
2022-10-11T03:13:37.038Z,97.63
2022-10-11T03:18:39.633Z,98.36
2022-10-11T03:23:42.891Z,98.02
2022-10-11T03:28:45.596Z,98.13
2022-10-11T03:33:48.228Z,97.38
2022-10-11T03:38:50.879Z,97.51
2022-10-11T03:43:53.444Z,97.26
2022-10-11T03:48:56.062Z,97.82
2022-10-11T03:53:58.778Z,97.88
2022-10-11T03:59:02.260Z,98.00
2022-10-11T04:04:05.577Z,97.36
2022-10-11T04:09:08.202Z,97.29
2022-10-11T04:14:10.739Z,97.07
2022-10-11T04:19:13.356Z,97.32
2022-10-11T04:24:16.013Z,97.22
2022-10-11T04:29:18.649Z,96.98
2022-10-11T04:34:21.269Z,97.71
2022-10-11T04:39:23.885Z,97.28
2022-10-11T04:44:26.497Z,97.46
2022-10-11T04:49:29.052Z,97.04
2022-10-11T04:54:32.047Z,96.83
2022-10-11T04:59:34.583Z,96.72
2022-10-11T05:04:37.165Z,96.67
2022-10-11T05:09:39.872Z,96.43
2022-10-11T05:14:42.428Z,96.27
2022-10-11T05:19:44.987Z,96.18
2022-10-11T05:24:47.603Z,95.59
2022-10-11T05:29:50.240Z,95.95
2022-10-11T05:34:52.903Z,96.03
2022-10-11T05:39:55.526Z,95.72
2022-10-11T05:44:58.161Z,95.77
2022-10-11T05:50:00.735Z,95.38
2022-10-11T05:55:03.648Z,95.29
2022-10-11T06:00:06.846Z,95.51
2022-10-11T06:05:14.725Z,95.01
2022-10-11T06:10:17.498Z,95.18
2022-10-11T06:15:20.137Z,94.24
2022-10-11T06:20:22.707Z,94.20
2022-10-11T06:25:25.355Z,93.87
2022-10-11T06:30:28.100Z,94.05
2022-10-11T06:35:30.881Z,93.72
2022-10-11T06:40:33.570Z,93.54
2022-10-11T06:45:36.213Z,93.11
2022-10-11T06:50:58.618Z,92.80
2022-10-11T06:56:13.041Z,92.67
2022-10-11T07:01:19.052Z,91.90
2022-10-11T07:06:27.293Z,91.33
2022-10-11T07:11:29.929Z,91.34
2022-10-11T07:16:32.553Z,91.31
2022-10-11T07:21:35.730Z,90.73
2022-10-11T07:26:39.322Z,89.51
2022-10-11T07:31:43.222Z,89.33
2022-10-11T07:36:46.985Z,88.45
2022-10-11T07:41:49.715Z,87.79
2022-10-11T07:46:53.036Z,87.48
2022-10-11T07:51:55.774Z,85.71
2022-10-11T07:56:58.376Z,84.96
2022-10-11T08:02:01.051Z,83.90
2022-10-11T08:07:04.285Z,82.61
2022-10-11T08:12:07.202Z,81.13
2022-10-11T08:17:09.805Z,80.09
2022-10-11T08:22:12.444Z,78.80
2022-10-11T08:27:15.116Z,77.80
2022-10-11T08:32:17.869Z,75.92
2022-10-11T08:37:20.458Z,75.16
2022-10-11T08:42:26.175Z,73.30
2022-10-11T08:48:02.349Z,70.08
2022-10-11T08:53:25.649Z,68.01
2022-10-11T08:59:01.865Z,65.85
2022-10-11T09:04:06.236Z,65.06
2022-10-11T09:09:27.257Z,64.85
2022-10-11T09:14:54.803Z,63.97
2022-10-11T09:20:06.027Z,63.51
2022-10-11T09:25:26.517Z,59.41
2022-10-11T09:30:29.189Z,60.68
2022-10-11T09:35:38.993Z,59.54
2022-10-11T09:41:00.641Z,58.63
2022-10-11T09:46:03.588Z,58.21
2022-10-11T09:51:29.864Z,56.93
2022-10-11T09:56:40.145Z,55.91
2022-10-11T10:01:42.805Z,55.99
2022-10-11T10:06:45.669Z,54.08
2022-10-11T10:11:48.542Z,54.16
2022-10-11T10:17:02.088Z,51.03
2022-10-11T10:22:04.718Z,51.12
2022-10-11T10:27:23.609Z,49.04
2022-10-11T10:32:32.645Z,49.99
2022-10-11T10:37:53.660Z,49.63
2022-10-11T10:42:56.326Z,49.17
2022-10-11T10:48:20.757Z,48.06
2022-10-11T10:53:42.304Z,48.93
2022-10-11T10:59:14.259Z,47.30
2022-10-11T11:04:36.229Z,46.80
2022-10-11T11:09:49.571Z,47.84
2022-10-11T11:14:57.876Z,46.05
2022-10-11T11:20:21.672Z,45.59
2022-10-11T11:25:30.082Z,45.42
2022-10-11T11:30:49.806Z,44.68
2022-10-11T11:35:56.395Z,44.75
2022-10-11T11:41:06.179Z,45.28
2022-10-11T11:46:15.642Z,45.37
2022-10-11T11:51:30.572Z,45.01
2022-10-11T11:56:45.970Z,45.33
2022-10-11T12:02:11.370Z,45.42
2022-10-11T12:07:18.019Z,45.55
2022-10-11T12:12:34.244Z,43.43
2022-10-11T12:17:57.405Z,45.18
2022-10-11T12:23:02.541Z,45.72
2022-10-11T12:28:42.552Z,45.58
2022-10-11T12:33:45.397Z,45.06
2022-10-11T12:39:19.666Z,45.67
2022-10-11T12:44:28.121Z,45.51
2022-10-11T12:50:06.139Z,45.48
2022-10-11T12:55:46.232Z,45.09
2022-10-11T13:00:51.920Z,45.03
2022-10-11T13:06:01.406Z,44.81
2022-10-11T13:11:11.597Z,44.70
2022-10-11T13:16:27.359Z,44.82
2022-10-11T13:21:29.875Z,44.15
2022-10-11T13:26:32.915Z,43.69
2022-10-11T13:31:35.494Z,43.92
2022-10-11T13:36:38.145Z,43.76
2022-10-11T13:41:42.168Z,43.68
2022-10-11T13:46:44.835Z,43.57
2022-10-11T13:51:58.881Z,43.88
2022-10-11T13:57:02.027Z,44.28
2022-10-11T14:02:04.661Z,44.38
2022-10-11T14:07:33.658Z,44.57
2022-10-11T14:12:40.865Z,44.71
2022-10-11T14:17:45.274Z,45.33
2022-10-11T14:22:54.273Z,45.36
2022-10-11T14:27:57.572Z,45.90
2022-10-11T14:33:01.569Z,46.44
2022-10-11T14:38:04.241Z,46.78
2022-10-11T14:43:06.783Z,48.66
2022-10-11T14:48:09.353Z,50.44
2022-10-11T14:53:12.452Z,52.22
2022-10-11T14:58:19.114Z,53.30
2022-10-11T15:03:21.711Z,55.00
2022-10-11T15:08:24.311Z,55.49
2022-10-11T15:13:26.949Z,57.09
2022-10-11T15:18:29.729Z,58.90
2022-10-11T15:23:32.288Z,59.52
2022-10-11T15:28:35.647Z,60.42
2022-10-11T15:33:39.518Z,61.83
2022-10-11T15:38:42.781Z,61.71
2022-10-11T15:43:46.425Z,62.69
2022-10-11T15:48:50.670Z,62.43
2022-10-11T15:53:53.276Z,63.75
2022-10-11T15:58:56.019Z,63.88
2022-10-11T16:03:58.696Z,63.65
2022-10-11T16:09:01.317Z,64.90
2022-10-11T16:14:04.294Z,65.62
2022-10-11T16:19:06.947Z,65.91
2022-10-11T16:24:09.605Z,66.94
2022-10-11T16:29:12.212Z,66.77
2022-10-11T16:34:14.835Z,66.97
2022-10-11T16:39:18.557Z,67.88
2022-10-11T16:44:25.370Z,67.63
2022-10-11T16:49:28.909Z,68.05
2022-10-11T16:54:32.069Z,68.47
2022-10-11T16:59:35.071Z,68.99
2022-10-11T17:04:37.668Z,69.08
2022-10-11T17:09:44.646Z,69.65
2022-10-11T17:14:48.427Z,70.29
2022-10-11T17:19:51.001Z,69.62
2022-10-11T17:24:53.620Z,70.02
2022-10-11T17:29:56.223Z,70.59
2022-10-11T17:35:02.106Z,71.14
2022-10-11T17:40:06.374Z,72.14
2022-10-11T17:45:09.275Z,72.85
2022-10-11T17:50:12.123Z,73.73
2022-10-11T17:55:15.216Z,74.65
2022-10-11T18:00:17.991Z,75.92
2022-10-11T18:05:20.619Z,75.87
2022-10-11T18:10:23.418Z,76.37
2022-10-11T18:15:26.253Z,77.14
2022-10-11T18:20:29.137Z,77.07
2022-10-11T18:25:34.438Z,77.75
2022-10-11T18:30:45.404Z,78.09
2022-10-11T18:35:48.051Z,78.56
2022-10-11T18:40:50.572Z,79.19
2022-10-11T18:46:03.043Z,78.79
2022-10-11T18:51:09.098Z,79.32
2022-10-11T18:56:13.829Z,79.46
2022-10-11T19:01:22.852Z,80.31
2022-10-11T19:06:28.920Z,80.37
2022-10-11T19:11:32.246Z,80.73
2022-10-11T19:16:40.464Z,80.61
2022-10-11T19:21:43.532Z,80.91
2022-10-11T19:26:47.143Z,81.03
2022-10-11T19:31:58.222Z,82.07
2022-10-11T19:37:01.326Z,82.16
2022-10-11T19:42:05.006Z,82.26
2022-10-11T19:47:07.664Z,82.40
2022-10-11T19:52:10.225Z,83.06
2022-10-11T19:57:12.845Z,83.00
2022-10-11T20:02:15.408Z,83.64
2022-10-11T20:07:18.015Z,84.02
2022-10-11T20:12:20.807Z,84.15
2022-10-11T20:17:43.457Z,84.49
2022-10-11T20:22:46.033Z,84.52
2022-10-11T20:27:49.252Z,84.68
2022-10-11T20:32:52.184Z,85.06
2022-10-11T20:37:54.973Z,85.76
2022-10-11T20:42:57.566Z,85.72
2022-10-11T20:48:00.193Z,86.13
2022-10-11T20:53:02.746Z,86.50
2022-10-11T20:58:05.356Z,86.11
2022-10-11T21:03:08.558Z,86.36
2022-10-11T21:08:11.611Z,87.22
2022-10-11T21:13:14.338Z,87.60
2022-10-11T21:18:17.208Z,87.33
2022-10-11T21:23:19.958Z,87.73
2022-10-11T21:28:22.761Z,88.09
2022-10-11T21:33:27.053Z,87.79
2022-10-11T21:38:29.674Z,88.81
2022-10-11T21:43:33.254Z,88.43
2022-10-11T21:48:36.010Z,89.47
2022-10-11T21:53:38.777Z,88.59
2022-10-11T21:58:41.418Z,89.73
2022-10-11T22:03:44.715Z,89.36
2022-10-11T22:08:49.026Z,89.54
2022-10-11T22:13:51.576Z,89.47
2022-10-11T22:18:54.406Z,89.68
2022-10-11T22:23:57.044Z,89.11
2022-10-11T22:29:00.568Z,90.15
2022-10-11T22:34:03.661Z,90.06
2022-10-11T22:39:07.985Z,90.23
2022-10-11T22:44:15.069Z,90.11
2022-10-11T22:49:17.832Z,90.06
2022-10-11T22:54:20.516Z,90.09
2022-10-11T22:59:23.093Z,90.06
2022-10-11T23:04:25.691Z,89.95
2022-10-11T23:09:29.045Z,90.58
2022-10-11T23:14:31.640Z,90.40
2022-10-11T23:19:34.202Z,89.98
2022-10-11T23:24:36.761Z,90.45
2022-10-11T23:29:41.084Z,90.40
2022-10-11T23:34:43.658Z,90.27
2022-10-11T23:39:46.270Z,90.62
2022-10-11T23:44:48.998Z,91.12
2022-10-11T23:49:52.017Z,90.85
2022-10-11T23:54:55.814Z,90.98
2022-10-11T23:59:58.467Z,90.42
